createdAt,value
2019-03-04T22:16:17.932Z,6.77
2019-03-04T22:18:50.057Z,6.61
2019-03-04T22:21:20.446Z,6.58
2019-03-04T22:23:51.222Z,6.60
2019-03-04T22:26:21.911Z,6.59
2019-03-04T22:28:54.959Z,6.56
2019-03-04T22:31:25.395Z,6.65
2019-03-04T22:34:03.098Z,6.66
2019-03-04T22:36:50.661Z,6.65
2019-03-04T22:39:21.819Z,6.70
2019-03-04T22:42:00.337Z,6.58
2019-03-04T22:44:36.867Z,6.64
2019-03-04T22:47:17.058Z,6.67
2019-03-04T22:49:47.602Z,6.73
2019-03-04T22:52:22.619Z,6.74
2019-03-04T22:55:15.307Z,6.71
2019-03-04T22:57:47.649Z,6.68
2019-03-04T23:01:21.629Z,6.66
2019-03-04T23:04:03.723Z,6.66
2019-03-04T23:06:38.274Z,6.65
2019-03-04T23:09:11.603Z,6.61
2019-03-04T23:11:46.994Z,6.71
2019-03-04T23:14:26.330Z,6.67
2019-03-04T23:16:56.733Z,6.67
2019-03-04T23:19:34.623Z,6.64
2019-03-04T23:22:05.287Z,6.57
2019-03-04T23:24:37.400Z,6.66
2019-03-04T23:27:08.891Z,6.64
2019-03-04T23:29:39.418Z,6.62
2019-03-04T23:32:10.043Z,6.64
2019-03-04T23:34:41.036Z,6.69
2019-03-04T23:37:12.079Z,6.68
2019-03-04T23:39:43.120Z,6.61
2019-03-04T23:42:13.606Z,6.62
2019-03-04T23:44:47.541Z,6.78
2019-03-04T23:47:18.080Z,6.73
2019-03-04T23:49:48.860Z,6.79
2019-03-04T23:52:19.228Z,6.81
2019-03-04T23:54:49.667Z,6.81
2019-03-04T23:57:20.081Z,6.85
2019-03-04T23:59:52.311Z,6.78
